Granite City, Illinois
Current Conditions -  °F | °C
As of 3:53 PM on Friday 24 Oct 2014 (Local Time) from KCPS Reporting Station
Clear Clear  
Wind Chill: 23°   Ceiling: Unl
Heat Index: 23°   Visibility: 10mi
Dew Point: 10°   Wind: 5mph
Humidity: 43%   Direction: 240°WSW
Pressure: 30.03"   Gusts: NA
Location:  38.7°N, 90.15°W
Report Text: KCPS 242053Z AUTO 24004KT 10SM CLR 23/10 A3003 RMK AO2 SLP167 T02330100 56018
Loading
Personal Weather Stations






























Interactive Weather Map
Tropical Storm Tracking
New forecast layout! Learn more

10-Day Weather Forecast

Advertisements
Track Severe Weather on mobile